sensor_id;sensor_type;location;lat;lon;timestamp;P1;durP1;ratioP1;P2;durP2;ratioP2
31270;SDS011;17904;47.420;9.310;2023-01-26T00:03:22;43.53;;;25.42;;
31270;SDS011;17904;47.420;9.310;2023-01-26T00:05:49;46.65;;;22.65;;
31270;SDS011;17904;47.420;9.310;2023-01-26T00:10:42;45.92;;;23.45;;
31270;SDS011;17904;47.420;9.310;2023-01-26T00:13:16;43.60;;;23.85;;
31270;SDS011;17904;47.420;9.310;2023-01-26T00:15:48;42.92;;;25.05;;
31270;SDS011;17904;47.420;9.310;2023-01-26T00:20:41;40.47;;;22.13;;
31270;SDS011;17904;47.420;9.310;2023-01-26T00:25:36;49.22;;;25.00;;
31270;SDS011;17904;47.420;9.310;2023-01-26T00:28:05;52.25;;;26.67;;
31270;SDS011;17904;47.420;9.310;2023-01-26T00:32:58;48.80;;;25.42;;
31270;SDS011;17904;47.420;9.310;2023-01-26T00:37:51;50.22;;;25.98;;
31270;SDS011;17904;47.420;9.310;2023-01-26T00:40:19;47.50;;;25.10;;
31270;SDS011;17904;47.420;9.310;2023-01-26T00:45:13;44.92;;;23.65;;
31270;SDS011;17904;47.420;9.310;2023-01-26T00:47:40;51.53;;;27.88;;
31270;SDS011;17904;47.420;9.310;2023-01-26T00:50:07;51.55;;;27.42;;
31270;SDS011;17904;47.420;9.310;2023-01-26T00:52:35;50.90;;;26.55;;
31270;SDS011;17904;47.420;9.310;2023-01-26T00:57:28;47.53;;;25.15;;
31270;SDS011;17904;47.420;9.310;2023-01-26T00:59:55;50.95;;;27.88;;
31270;SDS011;17904;47.420;9.310;2023-01-26T01:02:23;50.58;;;28.65;;
31270;SDS011;17904;47.420;9.310;2023-01-26T01:04:50;52.70;;;28.95;;
31270;SDS011;17904;47.420;9.310;2023-01-26T01:07:17;53.60;;;29.20;;
31270;SDS011;17904;47.420;9.310;2023-01-26T01:09:44;54.97;;;29.70;;
31270;SDS011;17904;47.420;9.310;2023-01-26T01:12:11;54.38;;;28.58;;
31270;SDS011;17904;47.420;9.310;2023-01-26T01:14:38;54.75;;;28.25;;
31270;SDS011;17904;47.420;9.310;2023-01-26T01:19:33;59.08;;;28.10;;
31270;SDS011;17904;47.420;9.310;2023-01-26T01:24:26;50.45;;;25.77;;
31270;SDS011;17904;47.420;9.310;2023-01-26T01:26:53;54.00;;;28.77;;
31270;SDS011;17904;47.420;9.310;2023-01-26T01:31:46;51.65;;;26.55;;
31270;SDS011;17904;47.420;9.310;2023-01-26T01:36:40;49.45;;;24.90;;
31270;SDS011;17904;47.420;9.310;2023-01-26T01:41:33;54.05;;;26.85;;
31270;SDS011;17904;47.420;9.310;2023-01-26T01:44:19;50.38;;;26.98;;
31270;SDS011;17904;47.420;9.310;2023-01-26T01:46:52;49.22;;;25.92;;
31270;SDS011;17904;47.420;9.310;2023-01-26T01:50:07;53.20;;;27.10;;
31270;SDS011;17904;47.420;9.310;2023-01-26T01:52:17;46.13;;;26.15;;
31270;SDS011;17904;47.420;9.310;2023-01-26T01:54:52;53.65;;;27.23;;
31270;SDS011;17904;47.420;9.310;2023-01-26T01:57:31;58.25;;;28.77;;
31270;SDS011;17904;47.420;9.310;2023-01-26T02:00:11;56.38;;;28.75;;
31270;SDS011;17904;47.420;9.310;2023-01-26T02:02:40;57.10;;;28.58;;
31270;SDS011;17904;47.420;9.310;2023-01-26T02:05:12;58.13;;;28.08;;
31270;SDS011;17904;47.420;9.310;2023-01-26T02:07:50;54.35;;;27.02;;
31270;SDS011;17904;47.420;9.310;2023-01-26T02:10:17;52.40;;;27.35;;
31270;SDS011;17904;47.420;9.310;2023-01-26T02:12:46;52.60;;;27.90;;
31270;SDS011;17904;47.420;9.310;2023-01-26T02:15:16;52.45;;;28.52;;
31270;SDS011;17904;47.420;9.310;2023-01-26T02:17:44;57.22;;;27.65;;
31270;SDS011;17904;47.420;9.310;2023-01-26T02:26:05;53.28;;;25.83;;
31270;SDS011;17904;47.420;9.310;2023-01-26T02:28:34;58.92;;;29.40;;
31270;SDS011;17904;47.420;9.310;2023-01-26T02:35:59;52.42;;;25.05;;
31270;SDS011;17904;47.420;9.310;2023-01-26T02:41:33;56.60;;;25.90;;
31270;SDS011;17904;47.420;9.310;2023-01-26T02:44:21;53.63;;;26.33;;
31270;SDS011;17904;47.420;9.310;2023-01-26T02:46:49;54.97;;;29.30;;
31270;SDS011;17904;47.420;9.310;2023-01-26T02:49:16;53.67;;;27.77;;
31270;SDS011;17904;47.420;9.310;2023-01-26T02:52:03;52.72;;;28.63;;
31270;SDS011;17904;47.420;9.310;2023-01-26T02:54:32;54.88;;;26.73;;
31270;SDS011;17904;47.420;9.310;2023-01-26T02:57:17;48.80;;;26.80;;
31270;SDS011;17904;47.420;9.310;2023-01-26T02:59:44;49.45;;;25.83;;
31270;SDS011;17904;47.420;9.310;2023-01-26T03:02:12;60.03;;;29.45;;
31270;SDS011;17904;47.420;9.310;2023-01-26T03:04:39;52.83;;;27.55;;
31270;SDS011;17904;47.420;9.310;2023-01-26T03:07:07;57.58;;;28.98;;
31270;SDS011;17904;47.420;9.310;2023-01-26T03:12:00;53.55;;;26.83;;
31270;SDS011;17904;47.420;9.310;2023-01-26T03:14:27;50.85;;;24.60;;
31270;SDS011;17904;47.420;9.310;2023-01-26T03:19:21;63.75;;;28.40;;
31270;SDS011;17904;47.420;9.310;2023-01-26T03:22:08;51.70;;;28.13;;
31270;SDS011;17904;47.420;9.310;2023-01-26T03:24:56;59.72;;;26.40;;
31270;SDS011;17904;47.420;9.310;2023-01-26T03:27:44;58.50;;;29.63;;
31270;SDS011;17904;47.420;9.310;2023-01-26T03:30:17;54.40;;;25.92;;
31270;SDS011;17904;47.420;9.310;2023-01-26T03:32:46;51.35;;;23.85;;
31270;SDS011;17904;47.420;9.310;2023-01-26T03:35:15;60.35;;;30.60;;
31270;SDS011;17904;47.420;9.310;2023-01-26T03:37:48;53.40;;;27.48;;
31270;SDS011;17904;47.420;9.310;2023-01-26T03:40:46;60.83;;;29.08;;
31270;SDS011;17904;47.420;9.310;2023-01-26T03:43:31;60.97;;;29.42;;
31270;SDS011;17904;47.420;9.310;2023-01-26T03:46:17;62.10;;;28.75;;
31270;SDS011;17904;47.420;9.310;2023-01-26T03:49:03;51.20;;;25.85;;
31270;SDS011;17904;47.420;9.310;2023-01-26T03:51:52;57.00;;;28.40;;
31270;SDS011;17904;47.420;9.310;2023-01-26T03:54:37;51.63;;;26.33;;
31270;SDS011;17904;47.420;9.310;2023-01-26T03:57:23;63.78;;;29.95;;
31270;SDS011;17904;47.420;9.310;2023-01-26T04:02:19;57.25;;;28.00;;
31270;SDS011;17904;47.420;9.310;2023-01-26T04:05:07;58.35;;;28.05;;
31270;SDS011;17904;47.420;9.310;2023-01-26T04:08:00;53.50;;;24.88;;
31270;SDS011;17904;47.420;9.310;2023-01-26T04:10:46;55.38;;;26.45;;
31270;SDS011;17904;47.420;9.310;2023-01-26T04:13:16;53.47;;;26.50;;
31270;SDS011;17904;47.420;9.310;2023-01-26T04:16:06;52.17;;;25.88;;
31270;SDS011;17904;47.420;9.310;2023-01-26T04:18:53;48.67;;;22.67;;
31270;SDS011;17904;47.420;9.310;2023-01-26T04:21:39;48.53;;;24.13;;
31270;SDS011;17904;47.420;9.310;2023-01-26T04:24:12;56.72;;;26.38;;
31270;SDS011;17904;47.420;9.310;2023-01-26T04:26:43;58.65;;;27.85;;
31270;SDS011;17904;47.420;9.310;2023-01-26T04:29:15;55.50;;;26.40;;
31270;SDS011;17904;47.420;9.310;2023-01-26T04:31:44;51.47;;;25.80;;
31270;SDS011;17904;47.420;9.310;2023-01-26T04:34:14;53.80;;;26.90;;
31270;SDS011;17904;47.420;9.310;2023-01-26T04:36:41;55.25;;;28.55;;
31270;SDS011;17904;47.420;9.310;2023-01-26T04:39:09;49.35;;;24.58;;
31270;SDS011;17904;47.420;9.310;2023-01-26T04:41:42;58.70;;;28.73;;
31270;SDS011;17904;47.420;9.310;2023-01-26T04:44:12;56.03;;;27.70;;
31270;SDS011;17904;47.420;9.310;2023-01-26T04:46:39;57.50;;;26.77;;
31270;SDS011;17904;47.420;9.310;2023-01-26T04:49:05;54.60;;;28.00;;
31270;SDS011;17904;47.420;9.310;2023-01-26T04:51:33;60.97;;;28.73;;
31270;SDS011;17904;47.420;9.310;2023-01-26T04:53:59;59.40;;;27.92;;
31270;SDS011;17904;47.420;9.310;2023-01-26T04:56:27;63.88;;;29.63;;
31270;SDS011;17904;47.420;9.310;2023-01-26T04:58:57;66.53;;;29.70;;
31270;SDS011;17904;47.420;9.310;2023-01-26T05:01:26;59.60;;;28.05;;
31270;SDS011;17904;47.420;9.310;2023-01-26T05:03:53;63.92;;;30.25;;
31270;SDS011;17904;47.420;9.310;2023-01-26T05:06:21;61.90;;;29.92;;
31270;SDS011;17904;47.420;9.310;2023-01-26T05:08:48;60.00;;;27.45;;
31270;SDS011;17904;47.420;9.310;2023-01-26T05:11:17;63.33;;;28.60;;
31270;SDS011;17904;47.420;9.310;2023-01-26T05:14:03;55.55;;;26.70;;
31270;SDS011;17904;47.420;9.310;2023-01-26T05:16:54;60.78;;;28.88;;
31270;SDS011;17904;47.420;9.310;2023-01-26T05:19:47;67.53;;;31.60;;
31270;SDS011;17904;47.420;9.310;2023-01-26T05:22:19;64.68;;;30.17;;
31270;SDS011;17904;47.420;9.310;2023-01-26T05:25:06;62.85;;;28.98;;
31270;SDS011;17904;47.420;9.310;2023-01-26T05:27:39;58.35;;;28.25;;
31270;SDS011;17904;47.420;9.310;2023-01-26T05:30:06;66.72;;;30.55;;
31270;SDS011;17904;47.420;9.310;2023-01-26T05:32:37;63.70;;;28.45;;
31270;SDS011;17904;47.420;9.310;2023-01-26T05:35:04;77.32;;;31.20;;
31270;SDS011;17904;47.420;9.310;2023-01-26T05:37:33;72.28;;;30.92;;
31270;SDS011;17904;47.420;9.310;2023-01-26T05:39:59;58.45;;;27.80;;
31270;SDS011;17904;47.420;9.310;2023-01-26T05:42:27;61.35;;;28.15;;
31270;SDS011;17904;47.420;9.310;2023-01-26T05:45:05;60.03;;;27.58;;
31270;SDS011;17904;47.420;9.310;2023-01-26T05:47:34;66.53;;;28.85;;
31270;SDS011;17904;47.420;9.310;2023-01-26T05:50:01;51.53;;;26.77;;
31270;SDS011;17904;47.420;9.310;2023-01-26T05:52:30;63.75;;;28.20;;
31270;SDS011;17904;47.420;9.310;2023-01-26T05:54:58;68.53;;;29.95;;
31270;SDS011;17904;47.420;9.310;2023-01-26T05:57:25;62.65;;;28.27;;
31270;SDS011;17904;47.420;9.310;2023-01-26T05:59:56;63.80;;;28.00;;
31270;SDS011;17904;47.420;9.310;2023-01-26T06:02:23;65.88;;;30.25;;
31270;SDS011;17904;47.420;9.310;2023-01-26T06:04:52;60.67;;;27.85;;
31270;SDS011;17904;47.420;9.310;2023-01-26T06:07:19;59.88;;;27.60;;
31270;SDS011;17904;47.420;9.310;2023-01-26T06:09:54;60.05;;;25.88;;
31270;SDS011;17904;47.420;9.310;2023-01-26T06:12:39;58.35;;;27.85;;
31270;SDS011;17904;47.420;9.310;2023-01-26T06:15:31;55.10;;;25.40;;
31270;SDS011;17904;47.420;9.310;2023-01-26T06:20:25;57.63;;;24.38;;
31270;SDS011;17904;47.420;9.310;2023-01-26T06:22:59;53.08;;;24.63;;
31270;SDS011;17904;47.420;9.310;2023-01-26T06:25:32;52.70;;;23.20;;
31270;SDS011;17904;47.420;9.310;2023-01-26T06:27:59;62.83;;;26.13;;
31270;SDS011;17904;47.420;9.310;2023-01-26T06:30:27;51.65;;;25.77;;
31270;SDS011;17904;47.420;9.310;2023-01-26T06:32:59;55.25;;;23.85;;
31270;SDS011;17904;47.420;9.310;2023-01-26T06:35:27;47.83;;;21.15;;
31270;SDS011;17904;47.420;9.310;2023-01-26T06:37:57;48.75;;;22.50;;
31270;SDS011;17904;47.420;9.310;2023-01-26T06:42:51;56.78;;;25.27;;
31270;SDS011;17904;47.420;9.310;2023-01-26T06:45:18;68.22;;;25.48;;
31270;SDS011;17904;47.420;9.310;2023-01-26T06:47:47;53.45;;;24.70;;
31270;SDS011;17904;47.420;9.310;2023-01-26T06:50:15;56.53;;;22.83;;
31270;SDS011;17904;47.420;9.310;2023-01-26T06:52:46;60.58;;;25.35;;
31270;SDS011;17904;47.420;9.310;2023-01-26T06:55:35;58.17;;;25.02;;
31270;SDS011;17904;47.420;9.310;2023-01-26T06:58:25;51.08;;;22.60;;
31270;SDS011;17904;47.420;9.310;2023-01-26T07:01:16;50.63;;;23.43;;
31270;SDS011;17904;47.420;9.310;2023-01-26T07:03:44;50.60;;;22.70;;
31270;SDS011;17904;47.420;9.310;2023-01-26T07:06:12;64.72;;;24.42;;
31270;SDS011;17904;47.420;9.310;2023-01-26T07:08:39;57.15;;;25.50;;
31270;SDS011;17904;47.420;9.310;2023-01-26T07:11:07;62.72;;;26.50;;
31270;SDS011;17904;47.420;9.310;2023-01-26T07:13:34;51.67;;;22.73;;
31270;SDS011;17904;47.420;9.310;2023-01-26T07:18:32;55.15;;;23.85;;
31270;SDS011;17904;47.420;9.310;2023-01-26T07:21:00;55.03;;;22.90;;
31270;SDS011;17904;47.420;9.310;2023-01-26T07:23:27;58.85;;;22.98;;
31270;SDS011;17904;47.420;9.310;2023-01-26T07:25:54;54.75;;;23.70;;
31270;SDS011;17904;47.420;9.310;2023-01-26T07:28:21;48.28;;;24.73;;
31270;SDS011;17904;47.420;9.310;2023-01-26T07:30:48;56.10;;;26.45;;
31270;SDS011;17904;47.420;9.310;2023-01-26T07:35:42;54.50;;;22.58;;
31270;SDS011;17904;47.420;9.310;2023-01-26T07:40:35;56.13;;;23.73;;
31270;SDS011;17904;47.420;9.310;2023-01-26T07:45:48;60.83;;;25.15;;
31270;SDS011;17904;47.420;9.310;2023-01-26T07:48:17;64.75;;;23.83;;
31270;SDS011;17904;47.420;9.310;2023-01-26T07:50:48;57.88;;;24.02;;
31270;SDS011;17904;47.420;9.310;2023-01-26T07:53:16;54.45;;;24.65;;
31270;SDS011;17904;47.420;9.310;2023-01-26T07:55:48;59.95;;;26.10;;
31270;SDS011;17904;47.420;9.310;2023-01-26T07:58:15;55.03;;;23.63;;
31270;SDS011;17904;47.420;9.310;2023-01-26T08:00:43;59.75;;;25.35;;
31270;SDS011;17904;47.420;9.310;2023-01-26T08:03:12;56.80;;;25.27;;
31270;SDS011;17904;47.420;9.310;2023-01-26T08:05:39;59.60;;;25.42;;
31270;SDS011;17904;47.420;9.310;2023-01-26T08:08:08;64.97;;;25.00;;
31270;SDS011;17904;47.420;9.310;2023-01-26T08:13:01;58.17;;;25.20;;
31270;SDS011;17904;47.420;9.310;2023-01-26T08:15:29;58.83;;;25.15;;
31270;SDS011;17904;47.420;9.310;2023-01-26T08:22:55;55.10;;;24.17;;
31270;SDS011;17904;47.420;9.310;2023-01-26T08:25:25;60.10;;;22.77;;
31270;SDS011;17904;47.420;9.310;2023-01-26T08:30:19;48.30;;;21.90;;
31270;SDS011;17904;47.420;9.310;2023-01-26T08:32:46;54.90;;;22.85;;
31270;SDS011;17904;47.420;9.310;2023-01-26T08:35:13;53.40;;;22.45;;
31270;SDS011;17904;47.420;9.310;2023-01-26T08:37:39;53.47;;;23.92;;
31270;SDS011;17904;47.420;9.310;2023-01-26T08:42:34;49.83;;;21.77;;
31270;SDS011;17904;47.420;9.310;2023-01-26T08:47:27;56.90;;;24.55;;
31270;SDS011;17904;47.420;9.310;2023-01-26T08:52:21;59.30;;;25.08;;
31270;SDS011;17904;47.420;9.310;2023-01-26T08:57:14;53.45;;;24.02;;
31270;SDS011;17904;47.420;9.310;2023-01-26T08:59:41;61.22;;;25.83;;
31270;SDS011;17904;47.420;9.310;2023-01-26T09:04:35;52.05;;;23.45;;
31270;SDS011;17904;47.420;9.310;2023-01-26T09:09:29;62.35;;;25.27;;
31270;SDS011;17904;47.420;9.310;2023-01-26T09:14:22;62.80;;;25.65;;
31270;SDS011;17904;47.420;9.310;2023-01-26T09:16:49;62.03;;;26.55;;
31270;SDS011;17904;47.420;9.310;2023-01-26T09:19:16;63.72;;;29.13;;
31270;SDS011;17904;47.420;9.310;2023-01-26T09:24:10;58.67;;;26.48;;
31270;SDS011;17904;47.420;9.310;2023-01-26T09:26:36;61.95;;;29.00;;
31270;SDS011;17904;47.420;9.310;2023-01-26T09:29:03;56.88;;;26.48;;
31270;SDS011;17904;47.420;9.310;2023-01-26T09:33:57;65.32;;;28.83;;
31270;SDS011;17904;47.420;9.310;2023-01-26T09:38:51;59.17;;;26.70;;
31270;SDS011;17904;47.420;9.310;2023-01-26T09:41:23;58.33;;;26.65;;
31270;SDS011;17904;47.420;9.310;2023-01-26T09:44:18;58.42;;;25.70;;
31270;SDS011;17904;47.420;9.310;2023-01-26T09:49:25;56.58;;;26.88;;
31270;SDS011;17904;47.420;9.310;2023-01-26T09:52:04;46.22;;;24.05;;
31270;SDS011;17904;47.420;9.310;2023-01-26T09:54:37;56.88;;;27.17;;
31270;SDS011;17904;47.420;9.310;2023-01-26T09:57:13;57.85;;;27.48;;
31270;SDS011;17904;47.420;9.310;2023-01-26T10:02:28;61.65;;;27.38;;
31270;SDS011;17904;47.420;9.310;2023-01-26T10:05:00;54.75;;;25.95;;
31270;SDS011;17904;47.420;9.310;2023-01-26T10:08:48;56.10;;;25.30;;
31270;SDS011;17904;47.420;9.310;2023-01-26T10:11:26;55.63;;;27.23;;
31270;SDS011;17904;47.420;9.310;2023-01-26T10:19:03;54.88;;;25.30;;
31270;SDS011;17904;47.420;9.310;2023-01-26T10:21:38;57.50;;;26.23;;
31270;SDS011;17904;47.420;9.310;2023-01-26T10:24:10;63.15;;;27.35;;
31270;SDS011;17904;47.420;9.310;2023-01-26T10:26:39;58.35;;;26.17;;
31270;SDS011;17904;47.420;9.310;2023-01-26T10:29:10;58.97;;;28.00;;
31270;SDS011;17904;47.420;9.310;2023-01-26T10:31:40;55.58;;;26.45;;
31270;SDS011;17904;47.420;9.310;2023-01-26T10:34:13;59.85;;;27.73;;
31270;SDS011;17904;47.420;9.310;2023-01-26T10:36:43;66.18;;;30.90;;
31270;SDS011;17904;47.420;9.310;2023-01-26T10:39:12;55.75;;;26.73;;
31270;SDS011;17904;47.420;9.310;2023-01-26T10:41:54;55.92;;;27.38;;
31270;SDS011;17904;47.420;9.310;2023-01-26T10:47:03;61.28;;;28.70;;
31270;SDS011;17904;47.420;9.310;2023-01-26T10:49:43;60.97;;;26.88;;
31270;SDS011;17904;47.420;9.310;2023-01-26T10:52:15;58.63;;;28.35;;
31270;SDS011;17904;47.420;9.310;2023-01-26T10:54:44;57.83;;;25.45;;
31270;SDS011;17904;47.420;9.310;2023-01-26T10:57:19;64.00;;;28.98;;
31270;SDS011;17904;47.420;9.310;2023-01-26T10:59:49;66.10;;;28.95;;
31270;SDS011;17904;47.420;9.310;2023-01-26T11:02:18;66.70;;;27.60;;
31270;SDS011;17904;47.420;9.310;2023-01-26T11:05:33;61.38;;;28.25;;
31270;SDS011;17904;47.420;9.310;2023-01-26T11:07:38;58.25;;;27.42;;
31270;SDS011;17904;47.420;9.310;2023-01-26T11:12:49;60.38;;;27.27;;
31270;SDS011;17904;47.420;9.310;2023-01-26T11:34:19;62.70;;;27.95;;
31270;SDS011;17904;47.420;9.310;2023-01-26T11:39:59;55.97;;;26.70;;
31270;SDS011;17904;47.420;9.310;2023-01-26T11:45:14;52.40;;;25.83;;
31270;SDS011;17904;47.420;9.310;2023-01-26T11:50:27;55.45;;;28.13;;
31270;SDS011;17904;47.420;9.310;2023-01-26T11:53:14;53.30;;;23.67;;
31270;SDS011;17904;47.420;9.310;2023-01-26T12:01:31;49.10;;;23.92;;
31270;SDS011;17904;47.420;9.310;2023-01-26T12:03:59;50.80;;;22.10;;
31270;SDS011;17904;47.420;9.310;2023-01-26T12:09:11;48.97;;;21.65;;
31270;SDS011;17904;47.420;9.310;2023-01-26T12:11:59;56.72;;;24.45;;
31270;SDS011;17904;47.420;9.310;2023-01-26T12:20:00;45.00;;;21.50;;
31270;SDS011;17904;47.420;9.310;2023-01-26T12:22:32;55.53;;;23.65;;
31270;SDS011;17904;47.420;9.310;2023-01-26T12:27:54;59.70;;;26.33;;
31270;SDS011;17904;47.420;9.310;2023-01-26T12:33:15;53.92;;;23.27;;
31270;SDS011;17904;47.420;9.310;2023-01-26T12:43:37;51.60;;;24.73;;
31270;SDS011;17904;47.420;9.310;2023-01-26T12:46:08;52.75;;;23.55;;
31270;SDS011;17904;47.420;9.310;2023-01-26T12:51:18;47.92;;;23.60;;
31270;SDS011;17904;47.420;9.310;2023-01-26T12:54:12;55.05;;;23.67;;
31270;SDS011;17904;47.420;9.310;2023-01-26T12:56:46;56.08;;;26.35;;
31270;SDS011;17904;47.420;9.310;2023-01-26T12:59:20;53.05;;;23.42;;
31270;SDS011;17904;47.420;9.310;2023-01-26T13:05:00;41.20;;;17.65;;
31270;SDS011;17904;47.420;9.310;2023-01-26T13:07:32;49.25;;;21.52;;
31270;SDS011;17904;47.420;9.310;2023-01-26T13:10:08;45.78;;;20.02;;
31270;SDS011;17904;47.420;9.310;2023-01-26T13:13:00;51.28;;;22.60;;
31270;SDS011;17904;47.420;9.310;2023-01-26T13:15:46;51.67;;;24.42;;
31270;SDS011;17904;47.420;9.310;2023-01-26T13:18:46;53.45;;;23.95;;
31270;SDS011;17904;47.420;9.310;2023-01-26T13:26:56;48.22;;;21.95;;
31270;SDS011;17904;47.420;9.310;2023-01-26T13:31:54;49.88;;;21.42;;
31270;SDS011;17904;47.420;9.310;2023-01-26T13:34:45;50.55;;;23.13;;
31270;SDS011;17904;47.420;9.310;2023-01-26T13:37:16;54.40;;;24.25;;
31270;SDS011;17904;47.420;9.310;2023-01-26T13:39:51;47.13;;;22.35;;
31270;SDS011;17904;47.420;9.310;2023-01-26T13:42:31;45.55;;;20.55;;
31270;SDS011;17904;47.420;9.310;2023-01-26T13:45:04;45.10;;;21.02;;
31270;SDS011;17904;47.420;9.310;2023-01-26T13:47:43;45.25;;;20.27;;
31270;SDS011;17904;47.420;9.310;2023-01-26T13:50:49;44.88;;;19.95;;
31270;SDS011;17904;47.420;9.310;2023-01-26T13:56:02;45.78;;;20.33;;
31270;SDS011;17904;47.420;9.310;2023-01-26T13:58:31;45.13;;;20.70;;
31270;SDS011;17904;47.420;9.310;2023-01-26T14:01:06;57.53;;;24.58;;
31270;SDS011;17904;47.420;9.310;2023-01-26T14:03:37;46.65;;;22.75;;
31270;SDS011;17904;47.420;9.310;2023-01-26T14:08:34;44.80;;;22.25;;
31270;SDS011;17904;47.420;9.310;2023-01-26T14:11:03;51.78;;;21.52;;
31270;SDS011;17904;47.420;9.310;2023-01-26T14:13:40;45.78;;;20.35;;
31270;SDS011;17904;47.420;9.310;2023-01-26T14:16:07;43.70;;;19.90;;
31270;SDS011;17904;47.420;9.310;2023-01-26T14:18:51;42.08;;;18.20;;
31270;SDS011;17904;47.420;9.310;2023-01-26T14:21:51;40.42;;;18.30;;
31270;SDS011;17904;47.420;9.310;2023-01-26T14:27:00;37.13;;;18.42;;
31270;SDS011;17904;47.420;9.310;2023-01-26T14:29:29;40.17;;;18.58;;
31270;SDS011;17904;47.420;9.310;2023-01-26T14:31:57;44.35;;;18.98;;
31270;SDS011;17904;47.420;9.310;2023-01-26T14:34:25;47.67;;;22.58;;
31270;SDS011;17904;47.420;9.310;2023-01-26T14:37:04;46.75;;;20.45;;
31270;SDS011;17904;47.420;9.310;2023-01-26T14:39:42;42.65;;;20.27;;
31270;SDS011;17904;47.420;9.310;2023-01-26T14:42:13;42.38;;;19.60;;
31270;SDS011;17904;47.420;9.310;2023-01-26T14:44:41;42.83;;;21.30;;
31270;SDS011;17904;47.420;9.310;2023-01-26T14:47:15;45.22;;;19.00;;
31270;SDS011;17904;47.420;9.310;2023-01-26T14:49:50;51.38;;;19.08;;
31270;SDS011;17904;47.420;9.310;2023-01-26T14:52:27;45.63;;;20.13;;
31270;SDS011;17904;47.420;9.310;2023-01-26T14:55:03;42.47;;;20.05;;
31270;SDS011;17904;47.420;9.310;2023-01-26T14:57:32;39.95;;;19.33;;
31270;SDS011;17904;47.420;9.310;2023-01-26T14:59:59;47.90;;;19.60;;
31270;SDS011;17904;47.420;9.310;2023-01-26T15:02:38;44.97;;;20.50;;
31270;SDS011;17904;47.420;9.310;2023-01-26T15:05:11;40.10;;;18.08;;
31270;SDS011;17904;47.420;9.310;2023-01-26T15:12:59;45.60;;;20.63;;
31270;SDS011;17904;47.420;9.310;2023-01-26T15:15:58;40.13;;;18.85;;
31270;SDS011;17904;47.420;9.310;2023-01-26T15:18:31;48.63;;;20.63;;
31270;SDS011;17904;47.420;9.310;2023-01-26T15:21:00;42.28;;;18.20;;
31270;SDS011;17904;47.420;9.310;2023-01-26T15:26:22;32.17;;;15.57;;
31270;SDS011;17904;47.420;9.310;2023-01-26T15:28:58;32.13;;;16.00;;
31270;SDS011;17904;47.420;9.310;2023-01-26T15:33:55;36.35;;;16.23;;
31270;SDS011;17904;47.420;9.310;2023-01-26T15:36:28;38.20;;;18.73;;
31270;SDS011;17904;47.420;9.310;2023-01-26T15:39:01;32.42;;;16.67;;
31270;SDS011;17904;47.420;9.310;2023-01-26T15:41:36;37.63;;;18.10;;
31270;SDS011;17904;47.420;9.310;2023-01-26T15:44:02;35.28;;;17.40;;
31270;SDS011;17904;47.420;9.310;2023-01-26T15:46:29;40.78;;;19.25;;
31270;SDS011;17904;47.420;9.310;2023-01-26T15:48:56;43.70;;;19.05;;
31270;SDS011;17904;47.420;9.310;2023-01-26T15:53:49;38.25;;;18.30;;
31270;SDS011;17904;47.420;9.310;2023-01-26T15:58:43;32.55;;;15.75;;
31270;SDS011;17904;47.420;9.310;2023-01-26T16:01:13;32.33;;;15.48;;
31270;SDS011;17904;47.420;9.310;2023-01-26T16:03:43;35.55;;;16.05;;
31270;SDS011;17904;47.420;9.310;2023-01-26T16:06:30;35.03;;;16.73;;
31270;SDS011;17904;47.420;9.310;2023-01-26T16:08:58;43.05;;;17.95;;
31270;SDS011;17904;47.420;9.310;2023-01-26T16:11:27;34.95;;;16.15;;
31270;SDS011;17904;47.420;9.310;2023-01-26T16:13:56;40.58;;;19.02;;
31270;SDS011;17904;47.420;9.310;2023-01-26T16:16:29;39.08;;;17.77;;
31270;SDS011;17904;47.420;9.310;2023-01-26T16:18:56;39.28;;;18.00;;
31270;SDS011;17904;47.420;9.310;2023-01-26T16:23:51;33.30;;;16.98;;
31270;SDS011;17904;47.420;9.310;2023-01-26T16:26:18;33.58;;;15.35;;
31270;SDS011;17904;47.420;9.310;2023-01-26T16:28:45;29.83;;;15.20;;
31270;SDS011;17904;47.420;9.310;2023-01-26T16:31:13;38.10;;;18.20;;
31270;SDS011;17904;47.420;9.310;2023-01-26T16:33:48;38.55;;;17.73;;
31270;SDS011;17904;47.420;9.310;2023-01-26T16:36:16;44.05;;;18.08;;
31270;SDS011;17904;47.420;9.310;2023-01-26T16:38:44;36.17;;;17.02;;
31270;SDS011;17904;47.420;9.310;2023-01-26T16:41:13;40.83;;;18.13;;
31270;SDS011;17904;47.420;9.310;2023-01-26T16:43:54;31.63;;;15.50;;
31270;SDS011;17904;47.420;9.310;2023-01-26T16:46:22;34.92;;;16.15;;
31270;SDS011;17904;47.420;9.310;2023-01-26T16:48:50;31.83;;;16.02;;
31270;SDS011;17904;47.420;9.310;2023-01-26T16:51:24;33.92;;;16.65;;
31270;SDS011;17904;47.420;9.310;2023-01-26T16:53:54;30.75;;;15.32;;
31270;SDS011;17904;47.420;9.310;2023-01-26T16:56:22;32.53;;;15.90;;
31270;SDS011;17904;47.420;9.310;2023-01-26T16:58:50;33.67;;;16.10;;
31270;SDS011;17904;47.420;9.310;2023-01-26T17:01:21;37.17;;;19.30;;
31270;SDS011;17904;47.420;9.310;2023-01-26T17:03:59;34.85;;;16.27;;
31270;SDS011;17904;47.420;9.310;2023-01-26T17:06:27;36.38;;;17.08;;
31270;SDS011;17904;47.420;9.310;2023-01-26T17:08:54;33.65;;;16.17;;
31270;SDS011;17904;47.420;9.310;2023-01-26T17:11:25;30.30;;;14.38;;
31270;SDS011;17904;47.420;9.310;2023-01-26T17:13:54;30.95;;;14.98;;
31270;SDS011;17904;47.420;9.310;2023-01-26T17:16:22;28.80;;;14.65;;
31270;SDS011;17904;47.420;9.310;2023-01-26T17:18:52;27.27;;;13.68;;
31270;SDS011;17904;47.420;9.310;2023-01-26T17:23:49;31.70;;;14.33;;
31270;SDS011;17904;47.420;9.310;2023-01-26T17:26:17;26.35;;;13.10;;
31270;SDS011;17904;47.420;9.310;2023-01-26T17:28:46;27.55;;;13.07;;
31270;SDS011;17904;47.420;9.310;2023-01-26T17:31:15;28.80;;;15.55;;
31270;SDS011;17904;47.420;9.310;2023-01-26T17:33:45;35.15;;;16.23;;
31270;SDS011;17904;47.420;9.310;2023-01-26T17:36:13;29.13;;;15.40;;
31270;SDS011;17904;47.420;9.310;2023-01-26T17:38:41;28.88;;;14.10;;
31270;SDS011;17904;47.420;9.310;2023-01-26T17:41:08;28.13;;;14.35;;
31270;SDS011;17904;47.420;9.310;2023-01-26T17:43:35;38.13;;;19.42;;
31270;SDS011;17904;47.420;9.310;2023-01-26T17:48:33;32.35;;;14.82;;
31270;SDS011;17904;47.420;9.310;2023-01-26T17:51:13;27.35;;;13.57;;
31270;SDS011;17904;47.420;9.310;2023-01-26T17:53:42;32.45;;;15.05;;
31270;SDS011;17904;47.420;9.310;2023-01-26T17:56:11;28.75;;;15.18;;
31270;SDS011;17904;47.420;9.310;2023-01-26T17:58:39;42.53;;;14.85;;
31270;SDS011;17904;47.420;9.310;2023-01-26T18:01:07;33.42;;;14.80;;
31270;SDS011;17904;47.420;9.310;2023-01-26T18:03:39;29.00;;;13.75;;
31270;SDS011;17904;47.420;9.310;2023-01-26T18:06:07;25.70;;;13.82;;
31270;SDS011;17904;47.420;9.310;2023-01-26T18:08:34;28.08;;;13.55;;
31270;SDS011;17904;47.420;9.310;2023-01-26T18:11:02;22.45;;;12.63;;
31270;SDS011;17904;47.420;9.310;2023-01-26T18:13:30;22.52;;;12.43;;
31270;SDS011;17904;47.420;9.310;2023-01-26T18:15:58;23.77;;;12.00;;
31270;SDS011;17904;47.420;9.310;2023-01-26T18:18:26;29.95;;;14.60;;
31270;SDS011;17904;47.420;9.310;2023-01-26T18:20:54;27.90;;;13.80;;
31270;SDS011;17904;47.420;9.310;2023-01-26T18:23:21;25.58;;;12.63;;
31270;SDS011;17904;47.420;9.310;2023-01-26T18:25:49;24.98;;;12.25;;
31270;SDS011;17904;47.420;9.310;2023-01-26T18:30:42;28.85;;;14.40;;